sensor_id;sensor_type;location;lat;lon;timestamp;P1;durP1;ratioP1;P2;durP2;ratioP2
3700;SDS011;1866;48.374;10.766;2023-04-03T00:00:40;99.00;;;7.32;;
3700;SDS011;1866;48.374;10.766;2023-04-03T00:03:09;99.40;;;7.57;;
3700;SDS011;1866;48.374;10.766;2023-04-03T00:05:36;98.00;;;7.10;;
3700;SDS011;1866;48.374;10.766;2023-04-03T00:08:03;97.78;;;7.40;;
3700;SDS011;1866;48.374;10.766;2023-04-03T00:10:32;99.55;;;7.20;;
3700;SDS011;1866;48.374;10.766;2023-04-03T00:13:02;97.55;;;7.00;;
3700;SDS011;1866;48.374;10.766;2023-04-03T00:15:30;98.53;;;6.97;;
3700;SDS011;1866;48.374;10.766;2023-04-03T00:17:58;101.18;;;8.20;;
3700;SDS011;1866;48.374;10.766;2023-04-03T00:20:27;99.78;;;7.70;;
3700;SDS011;1866;48.374;10.766;2023-04-03T00:22:53;99.93;;;7.30;;
3700;SDS011;1866;48.374;10.766;2023-04-03T00:25:23;97.03;;;7.40;;
3700;SDS011;1866;48.374;10.766;2023-04-03T00:27:50;97.63;;;7.50;;
3700;SDS011;1866;48.374;10.766;2023-04-03T00:30:18;97.13;;;6.75;;
3700;SDS011;1866;48.374;10.766;2023-04-03T00:37:43;97.18;;;7.07;;
3700;SDS011;1866;48.374;10.766;2023-04-03T00:40:10;99.45;;;7.13;;
3700;SDS011;1866;48.374;10.766;2023-04-03T00:42:39;100.10;;;7.20;;
3700;SDS011;1866;48.374;10.766;2023-04-03T00:45:26;97.10;;;7.15;;
3700;SDS011;1866;48.374;10.766;2023-04-03T00:47:57;98.53;;;7.28;;
3700;SDS011;1866;48.374;10.766;2023-04-03T00:50:26;96.55;;;6.75;;
3700;SDS011;1866;48.374;10.766;2023-04-03T00:52:55;98.57;;;7.20;;
3700;SDS011;1866;48.374;10.766;2023-04-03T00:55:22;98.60;;;6.70;;
3700;SDS011;1866;48.374;10.766;2023-04-03T00:57:51;96.63;;;6.95;;
3700;SDS011;1866;48.374;10.766;2023-04-03T01:00:19;97.22;;;6.93;;
3700;SDS011;1866;48.374;10.766;2023-04-03T01:02:48;98.10;;;7.13;;
3700;SDS011;1866;48.374;10.766;2023-04-03T01:05:16;97.80;;;6.95;;
3700;SDS011;1866;48.374;10.766;2023-04-03T01:07:45;97.22;;;6.70;;
3700;SDS011;1866;48.374;10.766;2023-04-03T01:10:14;96.77;;;7.07;;
3700;SDS011;1866;48.374;10.766;2023-04-03T01:12:45;100.85;;;6.88;;
3700;SDS011;1866;48.374;10.766;2023-04-03T01:15:13;96.38;;;6.68;;
3700;SDS011;1866;48.374;10.766;2023-04-03T01:17:42;96.63;;;6.90;;
3700;SDS011;1866;48.374;10.766;2023-04-03T01:26:02;98.07;;;6.90;;
3700;SDS011;1866;48.374;10.766;2023-04-03T01:28:31;96.07;;;6.30;;
3700;SDS011;1866;48.374;10.766;2023-04-03T01:31:00;97.68;;;7.13;;
3700;SDS011;1866;48.374;10.766;2023-04-03T01:33:34;98.13;;;7.10;;
3700;SDS011;1866;48.374;10.766;2023-04-03T01:36:01;97.78;;;7.10;;
3700;SDS011;1866;48.374;10.766;2023-04-03T01:38:28;95.72;;;6.00;;
3700;SDS011;1866;48.374;10.766;2023-04-03T01:40:56;97.05;;;6.82;;
3700;SDS011;1866;48.374;10.766;2023-04-03T01:43:23;97.93;;;6.57;;
3700;SDS011;1866;48.374;10.766;2023-04-03T01:45:50;96.40;;;6.63;;
3700;SDS011;1866;48.374;10.766;2023-04-03T01:48:21;96.53;;;6.68;;
3700;SDS011;1866;48.374;10.766;2023-04-03T01:50:49;97.93;;;6.18;;
3700;SDS011;1866;48.374;10.766;2023-04-03T01:53:16;97.07;;;6.75;;
3700;SDS011;1866;48.374;10.766;2023-04-03T01:55:43;96.82;;;6.70;;
3700;SDS011;1866;48.374;10.766;2023-04-03T01:58:10;96.22;;;6.53;;
3700;SDS011;1866;48.374;10.766;2023-04-03T02:00:37;97.68;;;6.68;;
3700;SDS011;1866;48.374;10.766;2023-04-03T02:03:04;96.07;;;6.60;;
3700;SDS011;1866;48.374;10.766;2023-04-03T02:05:33;96.07;;;6.38;;
3700;SDS011;1866;48.374;10.766;2023-04-03T02:08:02;95.90;;;6.38;;
3700;SDS011;1866;48.374;10.766;2023-04-03T02:10:28;95.97;;;6.30;;
3700;SDS011;1866;48.374;10.766;2023-04-03T02:12:55;98.53;;;6.50;;
3700;SDS011;1866;48.374;10.766;2023-04-03T02:15:22;96.72;;;6.47;;
3700;SDS011;1866;48.374;10.766;2023-04-03T02:17:49;95.63;;;6.10;;
3700;SDS011;1866;48.374;10.766;2023-04-03T02:20:17;96.18;;;6.55;;
3700;SDS011;1866;48.374;10.766;2023-04-03T02:22:44;96.75;;;6.40;;
3700;SDS011;1866;48.374;10.766;2023-04-03T02:25:13;97.00;;;6.70;;
3700;SDS011;1866;48.374;10.766;2023-04-03T02:27:40;97.18;;;6.50;;
3700;SDS011;1866;48.374;10.766;2023-04-03T02:30:07;95.00;;;6.10;;
3700;SDS011;1866;48.374;10.766;2023-04-03T02:32:35;96.85;;;6.50;;
3700;SDS011;1866;48.374;10.766;2023-04-03T02:35:02;96.35;;;6.40;;
3700;SDS011;1866;48.374;10.766;2023-04-03T02:37:30;99.57;;;6.88;;
3700;SDS011;1866;48.374;10.766;2023-04-03T02:39:57;98.03;;;6.63;;
3700;SDS011;1866;48.374;10.766;2023-04-03T02:42:26;96.97;;;6.70;;
3700;SDS011;1866;48.374;10.766;2023-04-03T02:44:54;97.00;;;6.55;;
3700;SDS011;1866;48.374;10.766;2023-04-03T02:49:48;95.13;;;6.13;;
3700;SDS011;1866;48.374;10.766;2023-04-03T02:52:18;97.88;;;6.15;;
3700;SDS011;1866;48.374;10.766;2023-04-03T02:54:45;98.10;;;6.50;;
3700;SDS011;1866;48.374;10.766;2023-04-03T02:57:13;98.78;;;6.85;;
3700;SDS011;1866;48.374;10.766;2023-04-03T02:59:42;97.82;;;6.63;;
3700;SDS011;1866;48.374;10.766;2023-04-03T03:02:09;97.45;;;6.75;;
3700;SDS011;1866;48.374;10.766;2023-04-03T03:04:37;95.88;;;6.40;;
3700;SDS011;1866;48.374;10.766;2023-04-03T03:07:04;96.03;;;6.78;;
3700;SDS011;1866;48.374;10.766;2023-04-03T03:09:32;95.13;;;6.18;;
3700;SDS011;1866;48.374;10.766;2023-04-03T03:11:59;97.18;;;6.55;;
3700;SDS011;1866;48.374;10.766;2023-04-03T03:14:28;96.07;;;6.60;;
3700;SDS011;1866;48.374;10.766;2023-04-03T03:16:57;95.18;;;6.10;;
3700;SDS011;1866;48.374;10.766;2023-04-03T03:19:24;95.50;;;6.20;;
3700;SDS011;1866;48.374;10.766;2023-04-03T03:21:53;98.88;;;6.90;;
3700;SDS011;1866;48.374;10.766;2023-04-03T03:24:20;96.75;;;6.90;;
3700;SDS011;1866;48.374;10.766;2023-04-03T03:26:47;96.22;;;6.40;;
3700;SDS011;1866;48.374;10.766;2023-04-03T03:29:14;95.50;;;6.85;;
3700;SDS011;1866;48.374;10.766;2023-04-03T03:31:42;98.15;;;6.72;;
3700;SDS011;1866;48.374;10.766;2023-04-03T03:34:11;96.85;;;6.60;;
3700;SDS011;1866;48.374;10.766;2023-04-03T03:36:40;95.82;;;6.72;;
3700;SDS011;1866;48.374;10.766;2023-04-03T03:39:07;95.63;;;6.85;;
3700;SDS011;1866;48.374;10.766;2023-04-03T03:41:35;96.50;;;6.80;;
3700;SDS011;1866;48.374;10.766;2023-04-03T03:44:02;96.63;;;6.78;;
3700;SDS011;1866;48.374;10.766;2023-04-03T03:46:28;95.97;;;6.30;;
3700;SDS011;1866;48.374;10.766;2023-04-03T03:48:55;98.38;;;7.40;;
3700;SDS011;1866;48.374;10.766;2023-04-03T03:51:24;95.50;;;6.40;;
3700;SDS011;1866;48.374;10.766;2023-04-03T03:56:18;96.10;;;6.97;;
3700;SDS011;1866;48.374;10.766;2023-04-03T06:01:38;96.75;;;6.97;;
3700;SDS011;1866;48.374;10.766;2023-04-03T06:04:05;97.93;;;7.10;;
3700;SDS011;1866;48.374;10.766;2023-04-03T06:06:43;95.68;;;6.72;;
3700;SDS011;1866;48.374;10.766;2023-04-03T06:09:13;111.43;;;6.85;;
3700;SDS011;1866;48.374;10.766;2023-04-03T06:11:40;96.15;;;7.10;;
3700;SDS011;1866;48.374;10.766;2023-04-03T06:14:07;95.93;;;6.50;;
3700;SDS011;1866;48.374;10.766;2023-04-03T06:16:35;96.50;;;6.40;;
3700;SDS011;1866;48.374;10.766;2023-04-03T06:19:02;97.20;;;6.95;;
3700;SDS011;1866;48.374;10.766;2023-04-03T06:21:29;95.80;;;6.68;;
3700;SDS011;1866;48.374;10.766;2023-04-03T06:23:56;96.63;;;7.15;;
3700;SDS011;1866;48.374;10.766;2023-04-03T06:26:24;95.80;;;6.65;;
3700;SDS011;1866;48.374;10.766;2023-04-03T06:28:52;96.93;;;7.00;;
3700;SDS011;1866;48.374;10.766;2023-04-03T06:31:20;98.22;;;7.22;;
3700;SDS011;1866;48.374;10.766;2023-04-03T06:33:47;96.03;;;7.20;;
3700;SDS011;1866;48.374;10.766;2023-04-03T06:36:18;98.75;;;6.88;;
3700;SDS011;1866;48.374;10.766;2023-04-03T06:38:48;97.20;;;7.40;;
3700;SDS011;1866;48.374;10.766;2023-04-03T06:41:15;97.72;;;7.30;;
3700;SDS011;1866;48.374;10.766;2023-04-03T06:43:44;97.18;;;7.30;;
3700;SDS011;1866;48.374;10.766;2023-04-03T06:46:13;96.22;;;7.18;;
3700;SDS011;1866;48.374;10.766;2023-04-03T06:48:42;95.88;;;6.90;;
3700;SDS011;1866;48.374;10.766;2023-04-03T06:51:17;96.65;;;7.30;;
3700;SDS011;1866;48.374;10.766;2023-04-03T06:58:43;95.93;;;7.13;;
3700;SDS011;1866;48.374;10.766;2023-04-03T07:01:12;96.32;;;7.13;;
3700;SDS011;1866;48.374;10.766;2023-04-03T07:11:04;96.82;;;6.88;;
3700;SDS011;1866;48.374;10.766;2023-04-03T07:13:33;97.15;;;6.95;;
3700;SDS011;1866;48.374;10.766;2023-04-03T07:16:02;97.53;;;7.38;;
3700;SDS011;1866;48.374;10.766;2023-04-03T07:18:31;97.10;;;7.10;;
3700;SDS011;1866;48.374;10.766;2023-04-03T07:20:59;102.82;;;7.93;;
3700;SDS011;1866;48.374;10.766;2023-04-03T07:23:27;98.40;;;6.88;;
3700;SDS011;1866;48.374;10.766;2023-04-03T07:25:55;97.72;;;7.38;;
3700;SDS011;1866;48.374;10.766;2023-04-03T07:28:22;98.28;;;7.60;;
3700;SDS011;1866;48.374;10.766;2023-04-03T07:33:19;98.85;;;7.15;;
3700;SDS011;1866;48.374;10.766;2023-04-03T07:38:14;96.70;;;7.05;;
3700;SDS011;1866;48.374;10.766;2023-04-03T07:43:12;97.88;;;7.13;;
3700;SDS011;1866;48.374;10.766;2023-04-03T07:45:40;97.37;;;6.90;;
3700;SDS011;1866;48.374;10.766;2023-04-03T07:48:08;96.95;;;6.88;;
3700;SDS011;1866;48.374;10.766;2023-04-03T07:50:37;97.78;;;7.25;;
3700;SDS011;1866;48.374;10.766;2023-04-03T07:53:07;97.53;;;6.43;;
3700;SDS011;1866;48.374;10.766;2023-04-03T07:55:34;97.32;;;7.20;;
3700;SDS011;1866;48.374;10.766;2023-04-03T07:58:08;98.07;;;7.22;;
3700;SDS011;1866;48.374;10.766;2023-04-03T08:00:37;97.00;;;7.05;;
3700;SDS011;1866;48.374;10.766;2023-04-03T08:03:05;97.13;;;7.40;;
3700;SDS011;1866;48.374;10.766;2023-04-03T08:05:37;98.10;;;7.57;;
3700;SDS011;1866;48.374;10.766;2023-04-03T08:08:04;96.00;;;7.07;;
3700;SDS011;1866;48.374;10.766;2023-04-03T08:10:32;97.30;;;7.00;;
3700;SDS011;1866;48.374;10.766;2023-04-03T08:13:00;99.43;;;7.18;;
3700;SDS011;1866;48.374;10.766;2023-04-03T08:15:27;97.18;;;7.40;;
3700;SDS011;1866;48.374;10.766;2023-04-03T08:17:57;97.37;;;7.73;;
3700;SDS011;1866;48.374;10.766;2023-04-03T08:20:27;104.18;;;8.95;;
3700;SDS011;1866;48.374;10.766;2023-04-03T08:22:57;97.50;;;6.90;;
3700;SDS011;1866;48.374;10.766;2023-04-03T08:25:23;99.03;;;7.43;;
3700;SDS011;1866;48.374;10.766;2023-04-03T08:27:51;101.40;;;7.20;;
3700;SDS011;1866;48.374;10.766;2023-04-03T08:30:17;97.78;;;7.38;;
3700;SDS011;1866;48.374;10.766;2023-04-03T08:32:45;97.95;;;6.88;;
3700;SDS011;1866;48.374;10.766;2023-04-03T08:35:12;96.85;;;7.20;;
3700;SDS011;1866;48.374;10.766;2023-04-03T08:37:40;97.20;;;6.70;;
3700;SDS011;1866;48.374;10.766;2023-04-03T08:40:11;95.50;;;6.80;;
3700;SDS011;1866;48.374;10.766;2023-04-03T08:42:43;98.30;;;7.70;;
3700;SDS011;1866;48.374;10.766;2023-04-03T08:45:33;100.80;;;7.03;;
3700;SDS011;1866;48.374;10.766;2023-04-03T08:48:11;97.23;;;7.00;;
3700;SDS011;1866;48.374;10.766;2023-04-03T08:50:42;97.17;;;6.70;;
3700;SDS011;1866;48.374;10.766;2023-04-03T08:53:13;100.47;;;7.40;;
3700;SDS011;1866;48.374;10.766;2023-04-03T08:55:44;97.80;;;6.80;;
3700;SDS011;1866;48.374;10.766;2023-04-03T08:58:12;101.10;;;7.10;;
3700;SDS011;1866;48.374;10.766;2023-04-03T09:00:43;97.37;;;6.83;;
3700;SDS011;1866;48.374;10.766;2023-04-03T09:03:14;98.03;;;6.80;;
3700;SDS011;1866;48.374;10.766;2023-04-03T09:05:43;97.33;;;6.80;;
3700;SDS011;1866;48.374;10.766;2023-04-03T09:08:18;100.83;;;7.57;;
3700;SDS011;1866;48.374;10.766;2023-04-03T09:10:50;100.40;;;7.10;;
3700;SDS011;1866;48.374;10.766;2023-04-03T09:13:28;96.67;;;6.70;;
3700;SDS011;1866;48.374;10.766;2023-04-03T09:16:03;98.10;;;6.80;;
3700;SDS011;1866;48.374;10.766;2023-04-03T09:18:43;98.97;;;7.10;;
3700;SDS011;1866;48.374;10.766;2023-04-03T09:21:16;97.30;;;7.30;;
3700;SDS011;1866;48.374;10.766;2023-04-03T09:23:51;101.27;;;7.67;;
3700;SDS011;1866;48.374;10.766;2023-04-03T09:26:23;99.00;;;7.13;;
3700;SDS011;1866;48.374;10.766;2023-04-03T09:28:57;97.20;;;6.80;;
3700;SDS011;1866;48.374;10.766;2023-04-03T09:31:27;97.73;;;7.10;;
3700;SDS011;1866;48.374;10.766;2023-04-03T09:34:02;104.03;;;7.00;;
3700;SDS011;1866;48.374;10.766;2023-04-03T09:36:41;101.28;;;6.88;;
3700;SDS011;1866;48.374;10.766;2023-04-03T09:39:19;98.80;;;7.00;;
3700;SDS011;1866;48.374;10.766;2023-04-03T09:41:59;97.20;;;7.20;;
3700;SDS011;1866;48.374;10.766;2023-04-03T09:44:27;97.80;;;7.17;;
3700;SDS011;1866;48.374;10.766;2023-04-03T09:46:56;97.83;;;7.10;;
3700;SDS011;1866;48.374;10.766;2023-04-03T09:49:23;97.43;;;6.70;;
3700;SDS011;1866;48.374;10.766;2023-04-03T09:51:52;96.80;;;6.60;;
3700;SDS011;1866;48.374;10.766;2023-04-03T09:54:30;96.70;;;6.83;;
3700;SDS011;1866;48.374;10.766;2023-04-03T09:57:04;96.60;;;6.60;;
3700;SDS011;1866;48.374;10.766;2023-04-03T09:59:33;101.10;;;7.67;;
3700;SDS011;1866;48.374;10.766;2023-04-03T10:02:02;97.77;;;6.87;;
3700;SDS011;1866;48.374;10.766;2023-04-03T10:04:38;99.20;;;7.03;;
3700;SDS011;1866;48.374;10.766;2023-04-03T10:07:26;97.07;;;6.40;;
3700;SDS011;1866;48.374;10.766;2023-04-03T10:09:55;96.83;;;6.60;;
3700;SDS011;1866;48.374;10.766;2023-04-03T10:12:25;96.53;;;6.70;;
3700;SDS011;1866;48.374;10.766;2023-04-03T10:14:56;100.53;;;7.20;;
3700;SDS011;1866;48.374;10.766;2023-04-03T10:17:27;108.13;;;6.90;;
3700;SDS011;1866;48.374;10.766;2023-04-03T10:20:10;96.07;;;6.50;;
3700;SDS011;1866;48.374;10.766;2023-04-03T10:22:49;97.80;;;7.10;;
3700;SDS011;1866;48.374;10.766;2023-04-03T10:25:27;97.83;;;6.63;;
3700;SDS011;1866;48.374;10.766;2023-04-03T10:28:04;101.30;;;7.00;;
3700;SDS011;1866;48.374;10.766;2023-04-03T10:30:39;97.53;;;7.23;;
3700;SDS011;1866;48.374;10.766;2023-04-03T10:36:08;97.57;;;6.73;;
3700;SDS011;1866;48.374;10.766;2023-04-03T10:38:43;97.57;;;7.10;;
3700;SDS011;1866;48.374;10.766;2023-04-03T10:41:21;96.47;;;6.50;;
3700;SDS011;1866;48.374;10.766;2023-04-03T10:44:02;98.63;;;7.17;;
3700;SDS011;1866;48.374;10.766;2023-04-03T10:46:40;96.77;;;6.70;;
3700;SDS011;1866;48.374;10.766;2023-04-03T10:49:16;97.63;;;6.70;;
3700;SDS011;1866;48.374;10.766;2023-04-03T10:51:54;97.20;;;6.73;;
3700;SDS011;1866;48.374;10.766;2023-04-03T10:57:01;96.70;;;6.90;;
3700;SDS011;1866;48.374;10.766;2023-04-03T10:59:33;98.17;;;6.67;;
3700;SDS011;1866;48.374;10.766;2023-04-03T11:02:04;98.80;;;6.43;;
3700;SDS011;1866;48.374;10.766;2023-04-03T11:04:34;97.90;;;6.63;;
3700;SDS011;1866;48.374;10.766;2023-04-03T11:07:04;106.27;;;6.87;;
3700;SDS011;1866;48.374;10.766;2023-04-03T11:09:37;99.97;;;7.37;;
3700;SDS011;1866;48.374;10.766;2023-04-03T11:12:09;98.60;;;6.33;;
3700;SDS011;1866;48.374;10.766;2023-04-03T11:14:42;97.40;;;6.50;;
3700;SDS011;1866;48.374;10.766;2023-04-03T11:17:11;96.50;;;6.57;;
3700;SDS011;1866;48.374;10.766;2023-04-03T11:19:48;96.60;;;6.07;;
3700;SDS011;1866;48.374;10.766;2023-04-03T11:22:23;96.93;;;6.57;;
3700;SDS011;1866;48.374;10.766;2023-04-03T11:24:57;99.37;;;6.70;;
3700;SDS011;1866;48.374;10.766;2023-04-03T11:27:30;96.67;;;6.13;;
3700;SDS011;1866;48.374;10.766;2023-04-03T11:30:07;96.30;;;6.50;;
3700;SDS011;1866;48.374;10.766;2023-04-03T11:32:53;96.30;;;6.10;;
3700;SDS011;1866;48.374;10.766;2023-04-03T11:35:44;96.50;;;6.47;;
3700;SDS011;1866;48.374;10.766;2023-04-03T11:38:15;101.40;;;7.07;;
3700;SDS011;1866;48.374;10.766;2023-04-03T11:40:48;97.30;;;6.30;;
3700;SDS011;1866;48.374;10.766;2023-04-03T11:43:26;96.43;;;6.13;;
3700;SDS011;1866;48.374;10.766;2023-04-03T11:45:57;97.47;;;6.60;;
3700;SDS011;1866;48.374;10.766;2023-04-03T11:48:42;98.50;;;6.70;;
3700;SDS011;1866;48.374;10.766;2023-04-03T11:56:51;95.90;;;6.40;;
3700;SDS011;1866;48.374;10.766;2023-04-03T11:59:22;99.13;;;6.70;;
3700;SDS011;1866;48.374;10.766;2023-04-03T12:01:53;95.87;;;6.40;;
3700;SDS011;1866;48.374;10.766;2023-04-03T12:04:24;96.50;;;6.30;;
3700;SDS011;1866;48.374;10.766;2023-04-03T12:06:53;95.47;;;6.40;;
3700;SDS011;1866;48.374;10.766;2023-04-03T12:12:44;99.50;;;6.20;;
3700;SDS011;1866;48.374;10.766;2023-04-03T12:18:41;95.77;;;5.70;;
3700;SDS011;1866;48.374;10.766;2023-04-03T12:21:09;97.00;;;6.40;;
3700;SDS011;1866;48.374;10.766;2023-04-03T12:23:55;97.47;;;6.47;;
3700;SDS011;1866;48.374;10.766;2023-04-03T12:26:29;96.77;;;6.50;;
3700;SDS011;1866;48.374;10.766;2023-04-03T12:28:58;99.90;;;6.50;;
3700;SDS011;1866;48.374;10.766;2023-04-03T12:31:33;96.40;;;6.10;;
3700;SDS011;1866;48.374;10.766;2023-04-03T12:34:17;96.83;;;6.30;;
3700;SDS011;1866;48.374;10.766;2023-04-03T12:36:58;97.60;;;7.00;;
3700;SDS011;1866;48.374;10.766;2023-04-03T12:42:23;97.57;;;6.57;;
3700;SDS011;1866;48.374;10.766;2023-04-03T12:45:10;96.67;;;6.43;;
3700;SDS011;1866;48.374;10.766;2023-04-03T12:47:44;97.73;;;6.00;;
3700;SDS011;1866;48.374;10.766;2023-04-03T12:50:22;96.50;;;6.10;;
3700;SDS011;1866;48.374;10.766;2023-04-03T12:52:59;96.17;;;6.10;;
3700;SDS011;1866;48.374;10.766;2023-04-03T12:55:28;98.30;;;5.97;;
3700;SDS011;1866;48.374;10.766;2023-04-03T12:57:55;99.17;;;6.27;;
3700;SDS011;1866;48.374;10.766;2023-04-03T13:00:27;97.73;;;6.50;;
3700;SDS011;1866;48.374;10.766;2023-04-03T13:02:58;99.23;;;6.50;;
3700;SDS011;1866;48.374;10.766;2023-04-03T13:05:30;101.47;;;6.23;;
3700;SDS011;1866;48.374;10.766;2023-04-03T13:07:59;97.07;;;6.50;;
3700;SDS011;1866;48.374;10.766;2023-04-03T13:10:28;97.17;;;6.20;;
3700;SDS011;1866;48.374;10.766;2023-04-03T13:12:57;98.27;;;6.73;;
3700;SDS011;1866;48.374;10.766;2023-04-03T13:18:20;97.47;;;6.77;;
3700;SDS011;1866;48.374;10.766;2023-04-03T13:20:51;97.00;;;6.27;;
3700;SDS011;1866;48.374;10.766;2023-04-03T13:23:19;98.93;;;7.30;;
3700;SDS011;1866;48.374;10.766;2023-04-03T13:25:48;97.53;;;6.27;;
3700;SDS011;1866;48.374;10.766;2023-04-03T13:28:17;96.30;;;6.20;;
3700;SDS011;1866;48.374;10.766;2023-04-03T13:30:54;98.47;;;6.00;;
3700;SDS011;1866;48.374;10.766;2023-04-03T13:33:27;97.03;;;5.83;;
3700;SDS011;1866;48.374;10.766;2023-04-03T13:36:00;98.07;;;6.37;;
3700;SDS011;1866;48.374;10.766;2023-04-03T13:38:31;97.77;;;6.63;;
3700;SDS011;1866;48.374;10.766;2023-04-03T13:41:00;96.20;;;6.13;;
3700;SDS011;1866;48.374;10.766;2023-04-03T13:43:30;96.17;;;6.00;;
3700;SDS011;1866;48.374;10.766;2023-04-03T13:46:00;98.20;;;6.10;;
3700;SDS011;1866;48.374;10.766;2023-04-03T13:48:48;97.93;;;6.30;;
3700;SDS011;1866;48.374;10.766;2023-04-03T13:51:19;96.50;;;5.93;;
3700;SDS011;1866;48.374;10.766;2023-04-03T13:53:49;96.47;;;6.13;;
3700;SDS011;1866;48.374;10.766;2023-04-03T13:56:23;95.90;;;5.90;;
3700;SDS011;1866;48.374;10.766;2023-04-03T13:58:55;99.00;;;6.20;;
3700;SDS011;1866;48.374;10.766;2023-04-03T14:01:24;98.50;;;5.83;;
3700;SDS011;1866;48.374;10.766;2023-04-03T14:03:53;96.47;;;6.10;;
3700;SDS011;1866;48.374;10.766;2023-04-03T14:06:24;96.60;;;5.83;;
3700;SDS011;1866;48.374;10.766;2023-04-03T14:08:51;95.47;;;5.63;;
3700;SDS011;1866;48.374;10.766;2023-04-03T14:11:20;96.87;;;5.80;;
3700;SDS011;1866;48.374;10.766;2023-04-03T14:13:50;95.17;;;5.70;;
3700;SDS011;1866;48.374;10.766;2023-04-03T14:16:18;96.20;;;5.70;;
3700;SDS011;1866;48.374;10.766;2023-04-03T14:18:47;96.47;;;6.07;;
3700;SDS011;1866;48.374;10.766;2023-04-03T14:21:16;96.23;;;5.87;;
3700;SDS011;1866;48.374;10.766;2023-04-03T14:23:45;96.07;;;5.77;;
3700;SDS011;1866;48.374;10.766;2023-04-03T14:26:12;96.67;;;5.80;;
3700;SDS011;1866;48.374;10.766;2023-04-03T14:28:42;95.90;;;5.67;;
3700;SDS011;1866;48.374;10.766;2023-04-03T14:31:09;96.90;;;6.13;;
3700;SDS011;1866;48.374;10.766;2023-04-03T14:33:37;96.70;;;5.37;;
3700;SDS011;1866;48.374;10.766;2023-04-03T14:36:05;97.00;;;6.00;;
3700;SDS011;1866;48.374;10.766;2023-04-03T14:38:39;97.57;;;6.03;;
3700;SDS011;1866;48.374;10.766;2023-04-03T14:41:09;97.30;;;5.60;;
3700;SDS011;1866;48.374;10.766;2023-04-03T14:43:38;96.57;;;5.63;;
3700;SDS011;1866;48.374;10.766;2023-04-03T14:46:05;97.17;;;6.10;;
3700;SDS011;1866;48.374;10.766;2023-04-03T14:48:39;95.80;;;5.50;;
3700;SDS011;1866;48.374;10.766;2023-04-03T14:51:10;96.97;;;6.23;;
3700;SDS011;1866;48.374;10.766;2023-04-03T14:53:38;96.67;;;6.37;;
3700;SDS011;1866;48.374;10.766;2023-04-03T14:56:12;96.97;;;6.07;;
3700;SDS011;1866;48.374;10.766;2023-04-03T14:58:41;102.40;;;6.00;;
3700;SDS011;1866;48.374;10.766;2023-04-03T15:01:09;95.73;;;5.67;;
3700;SDS011;1866;48.374;10.766;2023-04-03T15:03:39;96.40;;;5.80;;
3700;SDS011;1866;48.374;10.766;2023-04-03T15:06:07;100.50;;;5.80;;
3700;SDS011;1866;48.374;10.766;2023-04-03T15:08:37;96.40;;;6.10;;
3700;SDS011;1866;48.374;10.766;2023-04-03T15:11:07;96.47;;;5.83;;
3700;SDS011;1866;48.374;10.766;2023-04-03T15:13:36;102.77;;;6.43;;
3700;SDS011;1866;48.374;10.766;2023-04-03T15:16:03;96.17;;;5.57;;
3700;SDS011;1866;48.374;10.766;2023-04-03T15:18:33;96.20;;;5.70;;
3700;SDS011;1866;48.374;10.766;2023-04-03T15:21:03;97.10;;;6.00;;
3700;SDS011;1866;48.374;10.766;2023-04-03T15:23:30;97.27;;;5.80;;
3700;SDS011;1866;48.374;10.766;2023-04-03T15:25:58;101.60;;;6.30;;
3700;SDS011;1866;48.374;10.766;2023-04-03T15:28:28;96.87;;;5.87;;
3700;SDS011;1866;48.374;10.766;2023-04-03T15:30:59;97.67;;;6.07;;
3700;SDS011;1866;48.374;10.766;2023-04-03T15:33:27;96.27;;;5.87;;
3700;SDS011;1866;48.374;10.766;2023-04-03T15:35:54;97.60;;;6.30;;
3700;SDS011;1866;48.374;10.766;2023-04-03T15:38:22;100.10;;;6.30;;
3700;SDS011;1866;48.374;10.766;2023-04-03T15:40:49;99.37;;;5.87;;
3700;SDS011;1866;48.374;10.766;2023-04-03T15:43:17;96.77;;;5.70;;
3700;SDS011;1866;48.374;10.766;2023-04-03T15:45:45;96.10;;;5.47;;
3700;SDS011;1866;48.374;10.766;2023-04-03T15:48:14;96.67;;;5.70;;
3700;SDS011;1866;48.374;10.766;2023-04-03T15:50:41;97.17;;;6.10;;
3700;SDS011;1866;48.374;10.766;2023-04-03T15:53:08;96.90;;;5.60;;
3700;SDS011;1866;48.374;10.766;2023-04-03T15:55:36;96.43;;;5.63;;
3700;SDS011;1866;48.374;10.766;2023-04-03T15:58:04;96.67;;;6.10;;
3700;SDS011;1866;48.374;10.766;2023-04-03T16:00:31;95.97;;;5.50;;
3700;SDS011;1866;48.374;10.766;2023-04-03T16:02:58;95.87;;;5.50;;
3700;SDS011;1866;48.374;10.766;2023-04-03T16:05:30;96.23;;;5.90;;
3700;SDS011;1866;48.374;10.766;2023-04-03T16:07:58;97.40;;;5.70;;
3700;SDS011;1866;48.374;10.766;2023-04-03T16:10:26;96.83;;;5.70;;
3700;SDS011;1866;48.374;10.766;2023-04-03T16:12:54;96.67;;;5.83;;
3700;SDS011;1866;48.374;10.766;2023-04-03T16:15:21;98.60;;;6.03;;
3700;SDS011;1866;48.374;10.766;2023-04-03T16:17:48;96.37;;;5.80;;
3700;SDS011;1866;48.374;10.766;2023-04-03T16:20:15;98.77;;;5.90;;
3700;SDS011;1866;48.374;10.766;2023-04-03T16:22:45;97.37;;;5.80;;
3700;SDS011;1866;48.374;10.766;2023-04-03T16:25:12;95.80;;;5.50;;
3700;SDS011;1866;48.374;10.766;2023-04-03T16:27:39;96.47;;;5.90;;
3700;SDS011;1866;48.374;10.766;2023-04-03T16:30:07;95.27;;;5.37;;
3700;SDS011;1866;48.374;10.766;2023-04-03T16:32:35;96.57;;;5.73;;
3700;SDS011;1866;48.374;10.766;2023-04-03T16:35:04;96.90;;;5.70;;
3700;SDS011;1866;48.374;10.766;2023-04-03T16:37:32;96.27;;;6.40;;
3700;SDS011;1866;48.374;10.766;2023-04-03T16:40:00;95.60;;;5.73;;
3700;SDS011;1866;48.374;10.766;2023-04-03T16:42:27;95.77;;;5.70;;
3700;SDS011;1866;48.374;10.766;2023-04-03T16:44:53;99.77;;;6.00;;
3700;SDS011;1866;48.374;10.766;2023-04-03T16:47:20;97.40;;;5.60;;
3700;SDS011;1866;48.374;10.766;2023-04-03T16:49:47;95.57;;;6.13;;
3700;SDS011;1866;48.374;10.766;2023-04-03T16:52:14;100.30;;;6.30;;
3700;SDS011;1866;48.374;10.766;2023-04-03T16:54:41;96.73;;;6.00;;
3700;SDS011;1866;48.374;10.766;2023-04-03T16:57:09;95.97;;;5.70;;
3700;SDS011;1866;48.374;10.766;2023-04-03T16:59:36;95.70;;;5.87;;
3700;SDS011;1866;48.374;10.766;2023-04-03T17:02:03;94.47;;;5.73;;
3700;SDS011;1866;48.374;10.766;2023-04-03T17:04:29;96.43;;;5.70;;
3700;SDS011;1866;48.374;10.766;2023-04-03T17:06:56;106.40;;;6.33;;
3700;SDS011;1866;48.374;10.766;2023-04-03T17:09:25;95.27;;;5.60;;
3700;SDS011;1866;48.374;10.766;2023-04-03T17:11:51;95.37;;;5.63;;
3700;SDS011;1866;48.374;10.766;2023-04-03T17:14:20;95.50;;;5.60;;
3700;SDS011;1866;48.374;10.766;2023-04-03T17:16:46;95.77;;;5.67;;
3700;SDS011;1866;48.374;10.766;2023-04-03T17:19:13;95.07;;;5.57;;
3700;SDS011;1866;48.374;10.766;2023-04-03T17:21:42;95.40;;;5.77;;
3700;SDS011;1866;48.374;10.766;2023-04-03T17:24:10;99.70;;;6.03;;
3700;SDS011;1866;48.374;10.766;2023-04-03T17:26:39;95.03;;;5.63;;
3700;SDS011;1866;48.374;10.766;2023-04-03T17:29:07;97.67;;;5.90;;
3700;SDS011;1866;48.374;10.766;2023-04-03T17:31:35;94.20;;;5.67;;
3700;SDS011;1866;48.374;10.766;2023-04-03T17:34:02;95.40;;;6.07;;
3700;SDS011;1866;48.374;10.766;2023-04-03T17:36:29;97.50;;;5.80;;
3700;SDS011;1866;48.374;10.766;2023-04-03T17:38:58;94.57;;;5.60;;
3700;SDS011;1866;48.374;10.766;2023-04-03T17:41:25;95.27;;;5.77;;
3700;SDS011;1866;48.374;10.766;2023-04-03T17:43:52;95.40;;;5.80;;
3700;SDS011;1866;48.374;10.766;2023-04-03T17:46:21;95.50;;;6.50;;
3700;SDS011;1866;48.374;10.766;2023-04-03T17:48:50;95.60;;;5.57;;
3700;SDS011;1866;48.374;10.766;2023-04-03T17:51:19;95.03;;;5.83;;
3700;SDS011;1866;48.374;10.766;2023-04-03T17:53:47;94.17;;;5.53;;
3700;SDS011;1866;48.374;10.766;2023-04-03T17:56:15;95.23;;;5.60;;
3700;SDS011;1866;48.374;10.766;2023-04-03T17:58:44;94.95;;;5.65;;
3700;SDS011;1866;48.374;10.766;2023-04-03T18:01:12;97.63;;;6.13;;
3700;SDS011;1866;48.374;10.766;2023-04-03T18:03:40;98.00;;;6.10;;